ANZ197 NZAA-YMHB
Flight info
| Callsign | ANZ197 |
|---|---|
| Flight time | N/A |
| Altitude | 36000 |
| Route | VELMO L513 HEWIT |
| Aircraft | A320/M-SDE3FGHIRWY/LB1 |
Departure
| Time | N/A |
|---|---|
| Airport | Auckland International Airport (NZAA) |
Arrival
| Time | 2026-05-06 07:33 |
|---|---|
| Airport | Hobart International Airport (YMHB) |
| Time | Latitude | Longitude | Altitude | Speed | Heading |
|---|---|---|---|---|---|
| 2026-05-06 06:53 | -42.32878 | 152.30697 | 35925 ft | 399 kts | 266° |
| 2026-05-06 06:54 | -42.33839 | 152.23313 | 35922 ft | 399 kts | 266° |
| 2026-05-06 06:54 | -42.34790 | 152.15927 | 35921 ft | 399 kts | 266° |
| 2026-05-06 06:55 | -42.35736 | 152.08540 | 35920 ft | 399 kts | 266° |
| 2026-05-06 06:55 | -42.36681 | 152.01154 | 35916 ft | 399 kts | 266° |
| 2026-05-06 06:56 | -42.37632 | 151.93771 | 35916 ft | 398 kts | 266° |
| 2026-05-06 06:56 | -42.38570 | 151.86390 | 35919 ft | 398 kts | 267° |
| 2026-05-06 06:57 | -42.39499 | 151.79015 | 35907 ft | 397 kts | 267° |
| 2026-05-06 06:57 | -42.40415 | 151.71643 | 35905 ft | 397 kts | 267° |
| 2026-05-06 06:58 | -42.41323 | 151.64321 | 35903 ft | 397 kts | 267° |
| 2026-05-06 06:58 | -42.42246 | 151.56949 | 35905 ft | 397 kts | 267° |
| 2026-05-06 06:59 | -42.43161 | 151.49572 | 35903 ft | 397 kts | 267° |
| 2026-05-06 06:59 | -42.44066 | 151.42213 | 35898 ft | 396 kts | 268° |
| 2026-05-06 07:00 | -42.44958 | 151.34849 | 35894 ft | 396 kts | 268° |
| 2026-05-06 07:00 | -42.45845 | 151.27487 | 35891 ft | 396 kts | 268° |
| 2026-05-06 07:01 | -42.46724 | 151.20128 | 35887 ft | 396 kts | 268° |
| 2026-05-06 07:01 | -42.47611 | 151.12773 | 35879 ft | 395 kts | 268° |
| 2026-05-06 07:02 | -42.48494 | 151.05422 | 35874 ft | 395 kts | 268° |
| 2026-05-06 07:02 | -42.49368 | 150.98074 | 35878 ft | 395 kts | 268° |
| 2026-05-06 07:03 | -42.49969 | 150.90739 | 35876 ft | 386 kts | 278° |
| 2026-05-06 07:03 | -42.49704 | 150.83507 | 35868 ft | 385 kts | 279° |
| 2026-05-06 07:04 | -42.49444 | 150.76259 | 35864 ft | 385 kts | 279° |
| 2026-05-06 07:04 | -42.49181 | 150.69023 | 35860 ft | 384 kts | 279° |
| 2026-05-06 07:05 | -42.48918 | 150.61840 | 35860 ft | 384 kts | 279° |
| 2026-05-06 07:05 | -42.48650 | 150.54614 | 35864 ft | 384 kts | 279° |
| 2026-05-06 07:06 | -42.48371 | 150.47397 | 35856 ft | 383 kts | 279° |
| 2026-05-06 07:06 | -42.48095 | 150.40186 | 35850 ft | 383 kts | 279° |
| 2026-05-06 07:07 | -42.47810 | 150.32983 | 35853 ft | 383 kts | 279° |
| 2026-05-06 07:07 | -42.47514 | 150.25788 | 35851 ft | 382 kts | 279° |
| 2026-05-06 07:08 | -42.47217 | 150.18608 | 35846 ft | 382 kts | 279° |
| 2026-05-06 07:08 | -42.46923 | 150.11425 | 35845 ft | 382 kts | 279° |
| 2026-05-06 07:09 | -42.46620 | 150.04241 | 35848 ft | 381 kts | 279° |
| 2026-05-06 07:09 | -42.46317 | 149.97068 | 35843 ft | 381 kts | 279° |
| 2026-05-06 07:10 | -42.46014 | 149.89899 | 35840 ft | 381 kts | 279° |
| 2026-05-06 07:10 | -42.45704 | 149.82780 | 35836 ft | 381 kts | 279° |
| 2026-05-06 07:11 | -42.46097 | 149.75536 | 35834 ft | 391 kts | 268° |
| 2026-05-06 07:11 | -42.47672 | 149.68355 | 35831 ft | 401 kts | 259° |
| 2026-05-06 07:12 | -42.49490 | 149.61210 | 35831 ft | 401 kts | 259° |
| 2026-05-06 07:12 | -42.51034 | 149.54022 | 35772 ft | 394 kts | 264° |
| 2026-05-06 07:12 | -42.51685 | 149.50423 | 34681 ft | 396 kts | 265° |
| 2026-05-06 07:13 | -42.52316 | 149.46715 | 32861 ft | 411 kts | 266° |
| 2026-05-06 07:13 | -42.52955 | 149.42883 | 31347 ft | 417 kts | 265° |
| 2026-05-06 07:13 | -42.53605 | 149.39067 | 30277 ft | 413 kts | 265° |
| 2026-05-06 07:13 | -42.54258 | 149.35301 | 29155 ft | 409 kts | 265° |
| 2026-05-06 07:14 | -42.54912 | 149.31575 | 28042 ft | 403 kts | 265° |
| 2026-05-06 07:14 | -42.55561 | 149.27905 | 27003 ft | 397 kts | 265° |
| 2026-05-06 07:14 | -42.56198 | 149.24290 | 26011 ft | 391 kts | 265° |
| 2026-05-06 07:14 | -42.56817 | 149.20727 | 25052 ft | 385 kts | 265° |
| 2026-05-06 07:15 | -42.57421 | 149.17211 | 24130 ft | 380 kts | 265° |
| 2026-05-06 07:15 | -42.57816 | 149.14903 | 23550 ft | 377 kts | 265° |
| 2026-05-06 07:15 | -42.58603 | 149.10314 | 22792 ft | 369 kts | 265° |
| 2026-05-06 07:15 | -42.59180 | 149.06937 | 22375 ft | 365 kts | 265° |
| 2026-05-06 07:16 | -42.59561 | 149.04717 | 22097 ft | 363 kts | 265° |
| 2026-05-06 07:16 | -42.60131 | 149.01402 | 21665 ft | 360 kts | 265° |
| 2026-05-06 07:16 | -42.60696 | 148.98108 | 21251 ft | 356 kts | 265° |
| 2026-05-06 07:16 | -42.61255 | 148.94838 | 20804 ft | 353 kts | 265° |
| 2026-05-06 07:17 | -42.61804 | 148.91609 | 20370 ft | 350 kts | 265° |
| 2026-05-06 07:17 | -42.62522 | 148.87364 | 19791 ft | 346 kts | 265° |
| 2026-05-06 07:17 | -42.62884 | 148.85225 | 19499 ft | 344 kts | 265° |
| 2026-05-06 07:17 | -42.63416 | 148.82076 | 19067 ft | 340 kts | 265° |
| 2026-05-06 07:18 | -42.63944 | 148.78957 | 18633 ft | 337 kts | 265° |
| 2026-05-06 07:18 | -42.64466 | 148.75872 | 18212 ft | 334 kts | 264° |
| 2026-05-06 07:18 | -42.64984 | 148.72799 | 17746 ft | 331 kts | 264° |
| 2026-05-06 07:18 | -42.65493 | 148.69775 | 17319 ft | 327 kts | 264° |
| 2026-05-06 07:19 | -42.66009 | 148.66780 | 16748 ft | 327 kts | 263° |
| 2026-05-06 07:19 | -42.66601 | 148.63751 | 16032 ft | 333 kts | 261° |
| 2026-05-06 07:19 | -42.67244 | 148.60740 | 15600 ft | 330 kts | 260° |
| 2026-05-06 07:19 | -42.67902 | 148.57772 | 15164 ft | 326 kts | 260° |
| 2026-05-06 07:20 | -42.68555 | 148.54840 | 14743 ft | 322 kts | 260° |
| 2026-05-06 07:20 | -42.69192 | 148.51939 | 14326 ft | 318 kts | 260° |
| 2026-05-06 07:20 | -42.69811 | 148.49066 | 13914 ft | 315 kts | 260° |
| 2026-05-06 07:20 | -42.70406 | 148.46257 | 13495 ft | 312 kts | 260° |
| 2026-05-06 07:21 | -42.71007 | 148.43408 | 13063 ft | 308 kts | 260° |
| 2026-05-06 07:21 | -42.71584 | 148.40656 | 12660 ft | 304 kts | 260° |
| 2026-05-06 07:21 | -42.72166 | 148.37876 | 12271 ft | 300 kts | 260° |
| 2026-05-06 07:21 | -42.72730 | 148.35194 | 11887 ft | 297 kts | 260° |
| 2026-05-06 07:22 | -42.73296 | 148.32504 | 11507 ft | 294 kts | 259° |
| 2026-05-06 07:22 | -42.73855 | 148.29836 | 11130 ft | 292 kts | 259° |
| 2026-05-06 07:22 | -42.74408 | 148.27186 | 10752 ft | 290 kts | 259° |
| 2026-05-06 07:22 | -42.74957 | 148.24553 | 10373 ft | 288 kts | 259° |
| 2026-05-06 07:23 | -42.75505 | 148.21944 | 10070 ft | 285 kts | 259° |
| 2026-05-06 07:23 | -42.76042 | 148.19396 | 9932 ft | 275 kts | 259° |
| 2026-05-06 07:23 | -42.76559 | 148.16931 | 9781 ft | 267 kts | 259° |
| 2026-05-06 07:23 | -42.77067 | 148.14491 | 9643 ft | 268 kts | 259° |
| 2026-05-06 07:24 | -42.77575 | 148.12027 | 9185 ft | 271 kts | 259° |
| 2026-05-06 07:24 | -42.78082 | 148.09563 | 8831 ft | 269 kts | 259° |
| 2026-05-06 07:24 | -42.78590 | 148.07093 | 8405 ft | 270 kts | 258° |
| 2026-05-06 07:24 | -42.79095 | 148.04650 | 8112 ft | 267 kts | 258° |
| 2026-05-06 07:25 | -42.79597 | 148.02220 | 7758 ft | 266 kts | 258° |
| 2026-05-06 07:25 | -42.80010 | 148.00228 | 7484 ft | 265 kts | 258° |
| 2026-05-06 07:25 | -42.80497 | 147.97875 | 7154 ft | 263 kts | 258° |
| 2026-05-06 07:25 | -42.80991 | 147.95475 | 6824 ft | 262 kts | 258° |
| 2026-05-06 07:26 | -42.81483 | 147.93089 | 6482 ft | 261 kts | 258° |
| 2026-05-06 07:26 | -42.81970 | 147.90726 | 6030 ft | 257 kts | 257° |
| 2026-05-06 07:26 | -42.82450 | 147.88393 | 5404 ft | 255 kts | 257° |
| 2026-05-06 07:26 | -42.82925 | 147.86082 | 4797 ft | 253 kts | 256° |
| 2026-05-06 07:27 | -42.83396 | 147.83781 | 4172 ft | 251 kts | 255° |
| 2026-05-06 07:27 | -42.83865 | 147.81499 | 3545 ft | 249 kts | 254° |
| 2026-05-06 07:27 | -42.84325 | 147.79254 | 3158 ft | 240 kts | 254° |
| 2026-05-06 07:27 | -42.84753 | 147.77142 | 2995 ft | 222 kts | 254° |
| 2026-05-06 07:28 | -42.85146 | 147.75197 | 2890 ft | 204 kts | 254° |
| 2026-05-06 07:28 | -42.85505 | 147.73428 | 2794 ft | 189 kts | 253° |
| 2026-05-06 07:28 | -42.86203 | 147.70071 | 2622 ft | 180 kts | 250° |
| 2026-05-06 07:29 | -42.86639 | 147.68521 | 2565 ft | 167 kts | 246° |
| 2026-05-06 07:29 | -42.87116 | 147.67175 | 2481 ft | 149 kts | 242° |
| 2026-05-06 07:29 | -42.87616 | 147.66001 | 2305 ft | 139 kts | 238° |
| 2026-05-06 07:29 | -42.88146 | 147.64935 | 2106 ft | 133 kts | 237° |
| 2026-05-06 07:30 | -42.88577 | 147.63832 | 1934 ft | 132 kts | 247° |
| 2026-05-06 07:30 | -42.88847 | 147.62638 | 1780 ft | 132 kts | 255° |
| 2026-05-06 07:30 | -42.88951 | 147.61398 | 1587 ft | 132 kts | 266° |
| 2026-05-06 07:30 | -42.88886 | 147.60150 | 1401 ft | 133 kts | 275° |
| 2026-05-06 07:31 | -42.88652 | 147.58924 | 1224 ft | 135 kts | 285° |
| 2026-05-06 07:31 | -42.88245 | 147.57765 | 1042 ft | 138 kts | 296° |
| 2026-05-06 07:31 | -42.87662 | 147.56690 | 875 ft | 145 kts | 308° |
| 2026-05-06 07:31 | -42.86944 | 147.55706 | 805 ft | 147 kts | 310° |
| 2026-05-06 07:32 | -42.86211 | 147.54713 | 776 ft | 149 kts | 309° |
| 2026-05-06 07:32 | -42.85474 | 147.53716 | 741 ft | 150 kts | 311° |
| 2026-05-06 07:32 | -42.84738 | 147.52720 | 522 ft | 149 kts | 311° |
| 2026-05-06 07:32 | -42.84033 | 147.51706 | 113 ft | 150 kts | 312° |
| 2026-05-06 07:33 | -42.83375 | 147.50824 | 23 ft | 89 kts | 316° |
| 2026-05-06 07:33 | -42.83171 | 147.50558 | 24 ft | 24 kts | 314° |
| 2026-05-06 07:33 | -42.83086 | 147.50443 | 22 ft | 16 kts | 317° |
| 2026-05-06 07:33 | -42.82998 | 147.50333 | 22 ft | 18 kts | 317° |
| 2026-05-06 07:34 | -42.82935 | 147.50192 | 22 ft | 17 kts | 297° |
| 2026-05-06 07:34 | -42.82918 | 147.50232 | 22 ft | 12 kts | 139° |
| 2026-05-06 07:34 | -42.82987 | 147.50320 | 22 ft | 15 kts | 135° |
| 2026-05-06 07:34 | -42.83065 | 147.50429 | 22 ft | 17 kts | 132° |
| 2026-05-06 07:35 | -42.83146 | 147.50542 | 24 ft | 14 kts | 136° |
| 2026-05-06 07:35 | -42.83221 | 147.50643 | 24 ft | 14 kts | 135° |
| 2026-05-06 07:35 | -42.83294 | 147.50673 | 22 ft | 13 kts | 218° |
| 2026-05-06 07:35 | -42.83356 | 147.50569 | 22 ft | 16 kts | 226° |
| 2026-05-06 07:36 | -42.83435 | 147.50571 | 24 ft | 10 kts | 140° |
| 2026-05-06 07:36 | -42.83493 | 147.50642 | 22 ft | 13 kts | 137° |
| 2026-05-06 07:36 | -42.83562 | 147.50739 | 24 ft | 16 kts | 133° |
| 2026-05-06 07:36 | -42.83636 | 147.50835 | 22 ft | 12 kts | 143° |
| 2026-05-06 07:37 | -42.83695 | 147.50800 | 23 ft | 11 kts | 237° |
| 2026-05-06 07:37 | -42.83727 | 147.50733 | 22 ft | 7 kts | 236° |
| 2026-05-06 07:37 | -42.83743 | 147.50702 | 22 ft | 5 kts | 236° |
| 2026-05-06 07:37 | -42.83747 | 147.50695 | 24 ft | 0 kts | 235° |